Time;durP1;ratioP1;P1;durP2;ratioP2;P2;SDS_P1;SDS_P2;PMS_P1;PMS_P2;Temp;Humidity;BMP_temperature;BMP_pressure;BME280_temperature;BME280_humidity;BME280_pressure;Samples;Min_cycle;Max_cycle;Signal;HPM_P1;HPM_P2
2023/01/12 00:01:59;;;;;;;10.52;2.08;;;;;;;;;;5101016;28;20290;-65
2023/01/12 00:04:29;;;;;;;10.00;2.47;;;;;;;;;;5102101;28;20242;-64
2023/01/12 00:06:58;;;;;;;5.53;2.03;;;;;;;;;;5100264;28;20790;-61
2023/01/12 00:09:26;;;;;;;7.55;2.35;;;;;;;;;;5095632;28;20211;-63
2023/01/12 00:11:54;;;;;;;9.30;1.90;;;;;;;;;;5098250;28;20199;-64
2023/01/12 00:14:24;;;;;;;8.77;2.42;;;;;;;;;;5101700;28;20282;-63
2023/01/12 00:16:52;;;;;;;10.73;2.40;;;;;;;;;;5097378;28;20283;-63
2023/01/12 00:19:21;;;;;;;5.90;1.80;;;;;;;;;;5101425;28;20286;-63
2023/01/12 00:21:57;;;;;;;4.70;2.10;;;;;;;;;;5103714;28;20286;-63
2023/01/12 00:24:26;;;;;;;4.45;1.65;;;;;;;;;;5097674;28;20585;-61
2023/01/12 00:26:55;;;;;;;9.13;2.20;;;;;;;;;;5090644;28;20286;-61
2023/01/12 00:29:25;;;;;;;7.72;2.05;;;;;;;;;;5081848;28;20265;-62
2023/01/12 00:31:54;;;;;;;11.48;2.28;;;;;;;;;;5074427;28;20631;-63
2023/01/12 00:34:22;;;;;;;12.05;2.10;;;;;;;;;;5077106;28;20202;-63
2023/01/12 00:36:51;;;;;;;8.18;2.05;;;;;;;;;;5078891;28;20714;-63
2023/01/12 00:39:19;;;;;;;11.60;2.47;;;;;;;;;;5082800;28;20200;-63
2023/01/12 00:47:21;;;;;;;5.38;2.05;;;;;;;;;;5094224;28;20184;-62
2023/01/12 00:49:49;;;;;;;11.00;2.67;;;;;;;;;;5092524;28;20207;-63
2023/01/12 00:52:19;;;;;;;11.13;2.97;;;;;;;;;;5094113;28;20573;-63
2023/01/12 00:54:47;;;;;;;7.47;2.25;;;;;;;;;;5093871;28;20221;-62
2023/01/12 00:57:16;;;;;;;7.40;2.15;;;;;;;;;;5081946;28;20573;-62
2023/01/12 00:59:46;;;;;;;6.05;2.20;;;;;;;;;;5073023;28;20499;-62
2023/01/12 01:02:14;;;;;;;16.70;2.58;;;;;;;;;;5072860;28;20208;-62
2023/01/12 01:04:42;;;;;;;9.60;2.38;;;;;;;;;;5072277;28;20763;-63
2023/01/12 01:07:11;;;;;;;7.65;2.30;;;;;;;;;;5073356;28;20681;-63
2023/01/12 01:09:39;;;;;;;8.95;1.83;;;;;;;;;;5073453;28;20203;-63
2023/01/12 01:12:08;;;;;;;8.25;3.05;;;;;;;;;;5073537;28;20203;-64
2023/01/12 01:14:36;;;;;;;6.25;1.85;;;;;;;;;;5073567;28;20206;-64
2023/01/12 01:17:05;;;;;;;11.35;2.60;;;;;;;;;;5073212;28;20208;-63
2023/01/12 01:19:34;;;;;;;8.77;2.10;;;;;;;;;;5073283;28;20208;-64
2023/01/12 01:22:02;;;;;;;7.78;2.30;;;;;;;;;;5073217;28;20208;-64
2023/01/12 01:24:32;;;;;;;10.73;2.30;;;;;;;;;;5073131;28;20212;-63
2023/01/12 01:27:01;;;;;;;9.20;2.63;;;;;;;;;;5072839;28;20204;-64
2023/01/12 01:29:29;;;;;;;5.43;2.15;;;;;;;;;;5073080;28;20211;-63
2023/01/12 01:31:57;;;;;;;8.70;1.90;;;;;;;;;;5073342;28;20200;-63
2023/01/12 01:34:27;;;;;;;13.15;3.38;;;;;;;;;;5073209;28;20202;-64
2023/01/12 01:36:55;;;;;;;8.65;2.03;;;;;;;;;;5072922;28;20595;-63
2023/01/12 01:39:23;;;;;;;6.85;2.25;;;;;;;;;;5073258;28;20214;-63
2023/01/12 01:41:52;;;;;;;6.13;1.83;;;;;;;;;;5073097;28;20264;-63
2023/01/12 01:44:38;;;;;;;8.82;2.30;;;;;;;;;;5073066;28;20220;-63
2023/01/12 01:47:08;;;;;;;6.68;2.55;;;;;;;;;;5072984;28;20565;-63
2023/01/12 01:49:39;;;;;;;8.43;2.40;;;;;;;;;;5072968;28;20192;-63
2023/01/12 01:52:10;;;;;;;5.45;2.03;;;;;;;;;;5073282;28;20309;-63
2023/01/12 01:54:40;;;;;;;4.13;1.95;;;;;;;;;;5072720;28;20502;-63
2023/01/12 01:57:10;;;;;;;3.50;2.17;;;;;;;;;;5072820;28;20188;-63
2023/01/12 01:59:40;;;;;;;7.72;2.10;;;;;;;;;;5072201;28;20235;-63
2023/01/12 02:02:08;;;;;;;9.20;2.45;;;;;;;;;;5072352;28;20192;-63
2023/01/12 02:04:36;;;;;;;10.55;2.92;;;;;;;;;;5070558;28;20277;-63
2023/01/12 02:07:07;;;;;;;6.70;2.70;;;;;;;;;;5072604;28;20701;-63
2023/01/12 02:09:35;;;;;;;7.20;2.20;;;;;;;;;;5072944;28;20188;-61
2023/01/12 02:17:43;;;;;;;7.38;2.05;;;;;;;;;;5073111;28;20188;-63
2023/01/12 02:20:28;;;;;;;6.85;1.90;;;;;;;;;;5072458;28;20619;-63
2023/01/12 02:23:09;;;;;;;7.05;1.60;;;;;;;;;;5091577;28;20233;-63
2023/01/12 02:26:04;;;;;;;4.93;2.03;;;;;;;;;;5089804;28;20207;-63
2023/01/12 02:28:44;;;;;;;3.13;1.85;;;;;;;;;;5092509;28;20198;-63
2023/01/12 02:31:29;;;;;;;25.13;3.50;;;;;;;;;;5087380;28;20188;-61
2023/01/12 02:34:02;;;;;;;5.90;1.98;;;;;;;;;;5073627;28;20210;-61
2023/01/12 02:36:34;;;;;;;6.82;2.45;;;;;;;;;;5078165;28;20607;-62
2023/01/12 02:39:08;;;;;;;4.68;2.40;;;;;;;;;;5080088;28;20241;-61
2023/01/12 02:44:28;;;;;;;9.32;2.30;;;;;;;;;;5092710;28;20207;-63
2023/01/12 02:46:59;;;;;;;9.10;2.95;;;;;;;;;;5093868;28;20232;-62
2023/01/12 02:49:30;;;;;;;7.88;1.88;;;;;;;;;;5085850;28;20199;-64
2023/01/12 02:52:00;;;;;;;6.32;2.22;;;;;;;;;;5073269;28;20200;-63
2023/01/12 02:54:29;;;;;;;8.23;2.50;;;;;;;;;;5072910;28;20555;-62
2023/01/12 02:57:01;;;;;;;7.30;2.20;;;;;;;;;;5073065;28;20573;-63
2023/01/12 02:59:30;;;;;;;7.32;2.20;;;;;;;;;;5074092;28;20231;-62
2023/01/12 03:02:02;;;;;;;9.18;2.00;;;;;;;;;;5084768;28;20199;-62
2023/01/12 03:04:32;;;;;;;7.13;2.25;;;;;;;;;;5073136;28;20222;-62
2023/01/12 03:07:19;;;;;;;2.75;1.80;;;;;;;;;;5085214;28;20195;-62
2023/01/12 03:09:50;;;;;;;8.80;2.63;;;;;;;;;;5081408;28;20277;-61
2023/01/12 03:12:20;;;;;;;6.55;2.00;;;;;;;;;;5092771;28;20226;-62
2023/01/12 03:14:49;;;;;;;3.88;2.55;;;;;;;;;;5092963;28;20191;-61
2023/01/12 03:17:22;;;;;;;8.90;3.05;;;;;;;;;;5092286;28;20252;-63
2023/01/12 03:19:51;;;;;;;4.82;2.08;;;;;;;;;;5086644;28;20568;-62
2023/01/12 03:22:19;;;;;;;6.43;1.70;;;;;;;;;;5087570;28;20706;-62
2023/01/12 03:24:49;;;;;;;11.43;5.75;;;;;;;;;;5091248;28;20230;-64
2023/01/12 03:27:19;;;;;;;21.50;14.45;;;;;;;;;;5072488;28;20192;-62
2023/01/12 03:29:50;;;;;;;11.40;2.80;;;;;;;;;;5072577;28;20658;-63
2023/01/12 03:32:20;;;;;;;9.00;3.70;;;;;;;;;;5075612;28;20184;-63
2023/01/12 03:34:49;;;;;;;28.85;18.88;;;;;;;;;;5076880;28;20194;-62
2023/01/12 03:37:21;;;;;;;6.63;2.10;;;;;;;;;;5080531;28;20642;-63
2023/01/12 03:39:58;;;;;;;42.80;18.10;;;;;;;;;;5097439;28;20187;-63
2023/01/12 03:42:28;;;;;;;28.67;12.60;;;;;;;;;;5096581;28;20638;-63
2023/01/12 03:45:02;;;;;;;38.33;17.30;;;;;;;;;;5096448;28;20226;-63
2023/01/12 03:47:33;;;;;;;76.95;32.72;;;;;;;;;;5096396;28;20197;-63
2023/01/12 03:50:04;;;;;;;122.80;49.75;;;;;;;;;;5096227;28;20183;-64
2023/01/12 03:52:35;;;;;;;119.95;49.58;;;;;;;;;;5096108;28;20210;-63
2023/01/12 03:55:03;;;;;;;125.47;51.13;;;;;;;;;;5095897;28;20557;-64
2023/01/12 03:57:32;;;;;;;100.10;43.40;;;;;;;;;;5096237;28;20211;-64
2023/01/12 04:00:01;;;;;;;29.08;13.38;;;;;;;;;;5097139;28;20307;-63
2023/01/12 04:02:31;;;;;;;71.40;29.65;;;;;;;;;;5095867;28;20717;-64
2023/01/12 04:04:59;;;;;;;87.95;38.40;;;;;;;;;;5096285;28;20243;-65
2023/01/12 04:07:28;;;;;;;108.13;44.03;;;;;;;;;;5096651;28;20205;-63
2023/01/12 04:09:57;;;;;;;48.05;18.85;;;;;;;;;;5097654;28;20280;-63
2023/01/12 04:12:25;;;;;;;118.95;47.30;;;;;;;;;;5096495;28;20541;-63
2023/01/12 04:14:53;;;;;;;126.03;54.78;;;;;;;;;;5095553;28;20233;-63
2023/01/12 04:17:24;;;;;;;158.20;71.53;;;;;;;;;;5097012;28;20212;-63
2023/01/12 04:19:53;;;;;;;89.13;39.35;;;;;;;;;;5096514;28;20210;-63
2023/01/12 04:25:08;;;;;;;18.77;9.02;;;;;;;;;;5095841;28;20265;-63
2023/01/12 04:27:36;;;;;;;36.97;19.83;;;;;;;;;;5085984;28;20207;-63
2023/01/12 04:30:05;;;;;;;19.95;13.32;;;;;;;;;;5082520;28;20207;-63
2023/01/12 04:32:33;;;;;;;9.63;2.10;;;;;;;;;;5076282;28;20279;-64
2023/01/12 04:35:02;;;;;;;8.40;3.30;;;;;;;;;;5084955;28;20278;-63
2023/01/12 04:37:32;;;;;;;7.78;3.35;;;;;;;;;;5078502;28;20203;-64
2023/01/12 04:40:00;;;;;;;7.07;2.10;;;;;;;;;;5078490;28;20581;-63
2023/01/12 04:45:16;;;;;;;11.20;2.40;;;;;;;;;;5087859;28;20208;-63
2023/01/12 04:47:45;;;;;;;8.30;1.95;;;;;;;;;;5095153;28;20203;-64
2023/01/12 04:50:14;;;;;;;4.78;2.03;;;;;;;;;;5082065;28;20207;-62
2023/01/12 04:52:44;;;;;;;9.43;2.38;;;;;;;;;;5095757;28;20199;-63
2023/01/12 04:55:12;;;;;;;9.27;2.28;;;;;;;;;;5085180;28;20198;-62
2023/01/12 04:57:40;;;;;;;6.50;2.45;;;;;;;;;;5074742;28;20271;-63
2023/01/12 05:00:09;;;;;;;8.27;2.05;;;;;;;;;;5074937;28;20710;-62
2023/01/12 05:02:37;;;;;;;10.63;2.65;;;;;;;;;;5073367;28;20204;-63
2023/01/12 05:05:07;;;;;;;9.40;2.15;;;;;;;;;;5072631;28;20227;-62
2023/01/12 05:10:21;;;;;;;7.55;2.42;;;;;;;;;;5085476;28;20196;-63
2023/01/12 05:10:24;;;;;;;10.07;2.17;;;;;;;;;;5093943;28;20664;-65
2023/01/12 05:12:52;;;;;;;9.77;2.13;;;;;;;;;;5093970;28;20203;-62
2023/01/12 05:15:20;;;;;;;15.93;2.72;;;;;;;;;;5094117;28;20199;-63
2023/01/12 05:17:48;;;;;;;10.43;2.17;;;;;;;;;;5094456;28;20207;-63
2023/01/12 05:20:17;;;;;;;14.70;2.67;;;;;;;;;;5088792;28;20214;-63
2023/01/12 05:22:47;;;;;;;6.10;2.22;;;;;;;;;;5073285;28;20215;-63
2023/01/12 05:25:15;;;;;;;14.27;3.50;;;;;;;;;;5073588;28;20240;-62
2023/01/12 05:27:43;;;;;;;7.43;2.55;;;;;;;;;;5072881;28;20200;-63
2023/01/12 05:30:12;;;;;;;9.35;2.30;;;;;;;;;;5073266;28;20574;-63
2023/01/12 05:32:40;;;;;;;13.48;2.90;;;;;;;;;;5073028;28;20210;-63
2023/01/12 05:35:09;;;;;;;11.63;2.50;;;;;;;;;;5072674;28;20666;-63
2023/01/12 05:37:37;;;;;;;13.88;1.98;;;;;;;;;;5072642;28;20743;-63
2023/01/12 05:40:08;;;;;;;13.20;2.38;;;;;;;;;;5072726;28;20670;-63
2023/01/12 05:45:22;;;;;;;6.55;1.80;;;;;;;;;;5074577;28;20212;-64
2023/01/12 05:47:56;;;;;;;13.27;2.28;;;;;;;;;;5093515;28;20288;-63
2023/01/12 05:50:25;;;;;;;12.18;2.83;;;;;;;;;;5093383;28;20556;-63
2023/01/12 05:53:09;;;;;;;5.78;2.03;;;;;;;;;;5093503;28;20198;-63
2023/01/12 05:55:39;;;;;;;7.10;2.35;;;;;;;;;;5080015;28;20204;-63
2023/01/12 05:58:07;;;;;;;6.20;2.70;;;;;;;;;;5091750;28;20199;-63
2023/01/12 06:00:35;;;;;;;7.28;2.72;;;;;;;;;;5088205;28;20229;-63
2023/01/12 06:03:03;;;;;;;8.68;2.25;;;;;;;;;;5080754;28;20225;-64
2023/01/12 06:05:32;;;;;;;6.13;2.40;;;;;;;;;;5086364;28;20220;-64
2023/01/12 06:08:01;;;;;;;10.52;2.25;;;;;;;;;;5075234;28;20207;-63
2023/01/12 06:10:30;;;;;;;10.23;2.60;;;;;;;;;;5079935;28;20210;-64
2023/01/12 06:15:45;;;;;;;6.20;2.40;;;;;;;;;;5080461;28;20199;-63
2023/01/12 06:18:13;;;;;;;14.65;2.17;;;;;;;;;;5091899;28;20595;-63
2023/01/12 06:20:41;;;;;;;8.98;1.95;;;;;;;;;;5079072;28;20203;-63
2023/01/12 06:23:09;;;;;;;9.88;1.90;;;;;;;;;;5080318;28;20223;-63
2023/01/12 06:25:38;;;;;;;5.35;2.35;;;;;;;;;;5081975;28;20561;-63
2023/01/12 06:28:07;;;;;;;11.30;2.78;;;;;;;;;;5081920;28;20617;-63
2023/01/12 06:30:36;;;;;;;11.95;2.30;;;;;;;;;;5083192;28;20195;-63
2023/01/12 06:33:04;;;;;;;14.63;2.38;;;;;;;;;;5087736;28;20582;-63
2023/01/12 06:35:32;;;;;;;4.68;1.98;;;;;;;;;;5086334;28;20202;-64
2023/01/12 06:38:00;;;;;;;5.65;1.80;;;;;;;;;;5088663;28;20208;-64
2023/01/12 06:40:28;;;;;;;8.02;2.55;;;;;;;;;;5093171;28;20206;-64
2023/01/12 06:42:57;;;;;;;11.85;2.35;;;;;;;;;;5080194;28;20320;-62
2023/01/12 06:45:26;;;;;;;5.40;1.75;;;;;;;;;;5093648;28;20196;-63
2023/01/12 06:47:56;;;;;;;5.57;2.60;;;;;;;;;;5094318;28;20256;-64
2023/01/12 06:50:24;;;;;;;8.05;1.98;;;;;;;;;;5094456;28;20287;-63
2023/01/12 06:52:52;;;;;;;8.55;2.70;;;;;;;;;;5092184;28;20203;-64
2023/01/12 06:55:20;;;;;;;9.00;2.63;;;;;;;;;;5084401;28;20203;-64
2023/01/12 06:57:49;;;;;;;4.03;1.98;;;;;;;;;;5092090;28;20291;-64
2023/01/12 07:00:17;;;;;;;11.30;2.85;;;;;;;;;;5098559;28;20309;-64
2023/01/12 07:02:49;;;;;;;10.10;2.28;;;;;;;;;;5095381;28;20710;-63
2023/01/12 07:05:17;;;;;;;9.85;2.40;;;;;;;;;;5097368;28;20282;-64
2023/01/12 07:07:46;;;;;;;10.93;2.40;;;;;;;;;;5091386;28;20544;-63
2023/01/12 07:10:14;;;;;;;5.13;2.13;;;;;;;;;;5081877;28;20627;-64
2023/01/12 07:12:42;;;;;;;14.43;3.03;;;;;;;;;;5100951;28;20710;-64
2023/01/12 07:15:11;;;;;;;8.88;2.45;;;;;;;;;;5097412;28;20262;-63
2023/01/12 07:17:39;;;;;;;4.80;1.70;;;;;;;;;;5101891;28;20258;-63
2023/01/12 07:20:10;;;;;;;12.55;2.40;;;;;;;;;;5097146;28;20199;-62
2023/01/12 07:22:38;;;;;;;5.78;1.65;;;;;;;;;;5096381;28;20219;-64
2023/01/12 07:25:06;;;;;;;7.22;2.40;;;;;;;;;;5097081;28;20723;-63
2023/01/12 07:27:35;;;;;;;4.80;2.03;;;;;;;;;;5099382;28;20215;-64
2023/01/12 07:30:03;;;;;;;7.15;1.80;;;;;;;;;;5105524;28;20634;-64
2023/01/12 07:32:31;;;;;;;6.10;1.70;;;;;;;;;;5099479;28;20725;-63
2023/01/12 07:34:59;;;;;;;8.43;2.08;;;;;;;;;;5096832;28;20207;-64
2023/01/12 07:37:29;;;;;;;3.95;2.22;;;;;;;;;;5102683;28;20255;-63
2023/01/12 07:39:57;;;;;;;6.82;1.83;;;;;;;;;;5103119;28;20294;-64
2023/01/12 07:42:24;;;;;;;2.53;1.60;;;;;;;;;;5096242;28;20207;-63
2023/01/12 07:44:53;;;;;;;7.15;2.28;;;;;;;;;;5096275;28;20203;-63
2023/01/12 07:47:21;;;;;;;5.47;1.55;;;;;;;;;;5096016;28;20600;-63
2023/01/12 07:49:50;;;;;;;7.03;2.50;;;;;;;;;;5095753;28;20248;-63
2023/01/12 07:52:18;;;;;;;10.35;2.30;;;;;;;;;;5097499;28;20203;-63
2023/01/12 07:54:47;;;;;;;13.73;2.13;;;;;;;;;;5101428;28;20721;-67
2023/01/12 07:57:17;;;;;;;8.27;2.05;;;;;;;;;;5100989;28;20286;-63
2023/01/12 07:59:45;;;;;;;5.53;2.45;;;;;;;;;;5101921;28;20295;-63
2023/01/12 08:02:15;;;;;;;5.10;1.50;;;;;;;;;;5081997;28;20214;-64
2023/01/12 08:04:43;;;;;;;8.32;2.30;;;;;;;;;;5081193;28;20613;-64
2023/01/12 08:07:12;;;;;;;10.38;2.90;;;;;;;;;;5079795;28;20315;-63
2023/01/12 08:09:40;;;;;;;8.80;2.70;;;;;;;;;;5078508;28;20322;-64
2023/01/12 08:12:10;;;;;;;9.13;2.22;;;;;;;;;;5082051;28;20710;-64
2023/01/12 08:14:39;;;;;;;5.88;2.13;;;;;;;;;;5079770;28;20628;-64
2023/01/12 08:17:08;;;;;;;2.42;1.50;;;;;;;;;;5081083;28;20260;-63
2023/01/12 08:19:39;;;;;;;9.60;1.83;;;;;;;;;;5093100;28;20278;-63
2023/01/12 08:22:10;;;;;;;11.85;2.40;;;;;;;;;;5103110;28;20282;-63
2023/01/12 08:24:41;;;;;;;9.45;2.15;;;;;;;;;;5097919;28;20270;-63
2023/01/12 08:27:11;;;;;;;10.77;2.20;;;;;;;;;;5096055;28;20211;-63
2023/01/12 08:29:42;;;;;;;4.05;1.30;;;;;;;;;;5098970;28;20254;-63
2023/01/12 08:32:11;;;;;;;7.30;2.30;;;;;;;;;;5101179;28;20630;-63
2023/01/12 08:34:41;;;;;;;5.15;1.88;;;;;;;;;;5100060;28;20290;-64
2023/01/12 08:37:15;;;;;;;2.45;1.83;;;;;;;;;;5095798;28;20203;-64
2023/01/12 08:39:43;;;;;;;10.20;2.10;;;;;;;;;;5096631;28;20191;-64
2023/01/12 08:42:13;;;;;;;7.63;1.95;;;;;;;;;;5092889;28;20213;-64
2023/01/12 08:44:41;;;;;;;3.88;1.60;;;;;;;;;;5079726;28;20198;-64
2023/01/12 08:47:15;;;;;;;8.68;1.58;;;;;;;;;;5087673;28;20226;-64
2023/01/12 08:49:44;;;;;;;5.32;1.95;;;;;;;;;;5076627;28;20255;-64
2023/01/12 08:52:13;;;;;;;4.55;1.75;;;;;;;;;;5075621;28;20204;-64
2023/01/12 08:54:41;;;;;;;10.77;4.05;;;;;;;;;;5083944;28;20260;-64
2023/01/12 08:57:09;;;;;;;8.68;1.95;;;;;;;;;;5077470;28;20255;-64
2023/01/12 08:59:39;;;;;;;8.50;2.10;;;;;;;;;;5075531;28;20695;-64
2023/01/12 09:02:07;;;;;;;7.25;2.40;;;;;;;;;;5073862;28;20211;-64
2023/01/12 09:04:38;;;;;;;4.40;1.58;;;;;;;;;;5074772;28;20203;-64
2023/01/12 09:07:06;;;;;;;8.77;2.08;;;;;;;;;;5073522;28;20204;-64
2023/01/12 09:09:34;;;;;;;3.53;2.03;;;;;;;;;;5075212;28;20208;-63
2023/01/12 09:12:03;;;;;;;6.78;1.95;;;;;;;;;;5073516;28;20208;-64
2023/01/12 09:14:31;;;;;;;7.57;1.80;;;;;;;;;;5074632;28;20230;-64
2023/01/12 09:17:01;;;;;;;8.98;2.25;;;;;;;;;;5074607;28;20203;-64
2023/01/12 09:19:29;;;;;;;19.13;3.40;;;;;;;;;;5075469;28;20200;-64
2023/01/12 09:21:57;;;;;;;10.77;2.20;;;;;;;;;;5074950;28;20214;-64
2023/01/12 09:24:25;;;;;;;8.18;2.15;;;;;;;;;;5073718;28;20222;-64
2023/01/12 09:26:53;;;;;;;5.32;1.85;;;;;;;;;;5073591;28;20551;-64
2023/01/12 09:29:22;;;;;;;5.80;2.80;;;;;;;;;;5075336;28;20208;-65
2023/01/12 09:31:50;;;;;;;3.55;1.85;;;;;;;;;;5076145;28;20282;-64
2023/01/12 09:34:19;;;;;;;11.18;2.38;;;;;;;;;;5074609;28;20208;-64
2023/01/12 09:36:51;;;;;;;6.50;1.90;;;;;;;;;;5076569;28;20212;-64
2023/01/12 09:39:19;;;;;;;7.20;2.60;;;;;;;;;;5077239;28;20195;-65
2023/01/12 09:47:24;;;;;;;8.30;1.80;;;;;;;;;;5095936;28;20207;-65
2023/01/12 09:49:56;;;;;;;5.80;2.47;;;;;;;;;;5098983;28;20274;-65
2023/01/12 09:52:26;;;;;;;12.02;2.92;;;;;;;;;;5095533;28;20191;-64
2023/01/12 09:54:54;;;;;;;5.65;1.98;;;;;;;;;;5093631;28;20245;-63
2023/01/12 09:57:39;;;;;;;10.90;1.90;;;;;;;;;;5088530;28;20223;-64
2023/01/12 10:00:10;;;;;;;6.03;1.92;;;;;;;;;;5093856;28;20538;-63
2023/01/12 10:02:42;;;;;;;6.45;1.77;;;;;;;;;;5095288;28;20689;-64
2023/01/12 10:05:18;;;;;;;4.60;1.92;;;;;;;;;;5095236;28;20207;-64
2023/01/12 10:07:47;;;;;;;7.10;1.75;;;;;;;;;;5098998;28;20211;-65
2023/01/12 10:10:16;;;;;;;4.10;1.60;;;;;;;;;;5101915;28;20286;-64
2023/01/12 10:12:50;;;;;;;4.95;1.50;;;;;;;;;;5101136;28;20368;-63
2023/01/12 10:15:30;;;;;;;6.45;1.77;;;;;;;;;;5098129;28;20265;-65
2023/01/12 10:18:02;;;;;;;3.67;2.45;;;;;;;;;;5095409;28;20209;-64
2023/01/12 10:20:34;;;;;;;7.35;2.20;;;;;;;;;;5098960;28;20184;-64
2023/01/12 10:23:09;;;;;;;6.38;1.73;;;;;;;;;;5099386;28;20653;-64
2023/01/12 10:25:39;;;;;;;7.50;1.67;;;;;;;;;;5096921;28;20632;-64
2023/01/12 10:28:12;;;;;;;5.47;2.00;;;;;;;;;;5094209;28;20211;-64
2023/01/12 10:30:41;;;;;;;6.07;1.90;;;;;;;;;;5093733;28;20191;-64
2023/01/12 10:33:10;;;;;;;8.23;1.58;;;;;;;;;;5093725;28;20207;-65
2023/01/12 10:35:48;;;;;;;4.03;1.35;;;;;;;;;;5076594;28;20203;-63
2023/01/12 10:38:21;;;;;;;13.10;2.85;;;;;;;;;;5083456;28;20718;-64
2023/01/12 10:41:02;;;;;;;13.50;1.63;;;;;;;;;;5083124;28;20239;-63
2023/01/12 10:43:32;;;;;;;4.00;1.75;;;;;;;;;;5085643;28;20271;-64
2023/01/12 10:46:06;;;;;;;10.20;2.58;;;;;;;;;;5083084;28;20925;-64
2023/01/12 10:48:34;;;;;;;5.72;2.13;;;;;;;;;;5092241;28;20286;-64
2023/01/12 10:51:05;;;;;;;5.00;1.65;;;;;;;;;;5092565;28;20267;-63
2023/01/12 10:53:36;;;;;;;9.27;1.90;;;;;;;;;;5089260;28;20258;-63
2023/01/12 10:56:15;;;;;;;6.47;1.63;;;;;;;;;;5083531;28;20204;-63
2023/01/12 10:58:44;;;;;;;4.15;1.30;;;;;;;;;;5085628;28;20416;-63
2023/01/12 11:01:14;;;;;;;3.80;1.20;;;;;;;;;;5085019;28;20251;-63
2023/01/12 11:03:42;;;;;;;4.82;1.60;;;;;;;;;;5103349;28;20340;-63
2023/01/12 11:06:23;;;;;;;9.38;2.25;;;;;;;;;;5104045;28;20287;-63
2023/01/12 11:08:51;;;;;;;8.07;1.60;;;;;;;;;;5104727;28;20286;-64
2023/01/12 11:11:30;;;;;;;7.28;1.60;;;;;;;;;;5102670;28;20287;-63
2023/01/12 11:13:59;;;;;;;5.70;1.60;;;;;;;;;;5092612;28;20254;-63
2023/01/12 11:16:31;;;;;;;6.63;1.77;;;;;;;;;;5082599;28;20271;-64
2023/01/12 11:19:08;;;;;;;3.72;1.70;;;;;;;;;;5080554;28;20615;-64
2023/01/12 11:21:40;;;;;;;3.60;1.67;;;;;;;;;;5080074;28;20279;-64
2023/01/12 11:24:12;;;;;;;12.73;1.40;;;;;;;;;;5083367;28;20299;-64
2023/01/12 11:26:44;;;;;;;7.07;1.77;;;;;;;;;;5093906;28;20271;-64
2023/01/12 11:29:23;;;;;;;7.07;1.52;;;;;;;;;;5089775;28;20259;-64
2023/01/12 11:31:53;;;;;;;9.18;2.28;;;;;;;;;;5087809;28;20191;-64
2023/01/12 11:34:23;;;;;;;7.38;1.63;;;;;;;;;;5092315;28;20203;-64
2023/01/12 11:36:54;;;;;;;5.20;1.83;;;;;;;;;;5085117;28;20282;-64
2023/01/12 11:39:23;;;;;;;3.63;1.60;;;;;;;;;;5087585;28;20669;-63
2023/01/12 11:44:43;;;;;;;2.60;1.42;;;;;;;;;;5086093;28;20206;-64
2023/01/12 11:47:13;;;;;;;3.85;1.40;;;;;;;;;;5095972;28;20868;-64
2023/01/12 11:49:45;;;;;;;6.68;1.67;;;;;;;;;;5101786;28;20307;-64
2023/01/12 11:52:15;;;;;;;4.15;1.27;;;;;;;;;;5100554;28;20270;-64
2023/01/12 11:54:43;;;;;;;1.90;1.40;;;;;;;;;;5100355;28;20702;-63
2023/01/12 11:57:26;;;;;;;2.20;1.10;;;;;;;;;;5090112;28;20256;-64
2023/01/12 12:00:01;;;;;;;7.28;1.77;;;;;;;;;;5092210;28;20590;-63
2023/01/12 12:02:40;;;;;;;5.75;1.40;;;;;;;;;;5091325;28;20274;-63
2023/01/12 12:05:22;;;;;;;6.43;1.40;;;;;;;;;;5093166;28;20326;-62
2023/01/12 12:08:03;;;;;;;5.07;1.40;;;;;;;;;;5094129;28;20247;-64
2023/01/12 12:10:34;;;;;;;1.80;1.08;;;;;;;;;;5081864;28;20619;-64
2023/01/12 12:13:09;;;;;;;1.30;0.77;;;;;;;;;;5082739;28;20267;-64
2023/01/12 12:15:40;;;;;;;2.65;1.80;;;;;;;;;;5083574;28;20243;-62
2023/01/12 12:18:16;;;;;;;4.25;3.55;;;;;;;;;;5081899;28;20283;-62
2023/01/12 12:20:48;;;;;;;4.28;1.10;;;;;;;;;;5081724;28;20271;-63
2023/01/12 12:23:25;;;;;;;4.20;1.45;;;;;;;;;;5081586;28;20702;-63
2023/01/12 12:25:58;;;;;;;3.50;1.70;;;;;;;;;;5081001;28;20271;-63
2023/01/12 12:28:39;;;;;;;1.38;1.00;;;;;;;;;;5082531;28;20274;-63
2023/01/12 12:31:15;;;;;;;4.63;1.92;;;;;;;;;;5082387;28;20183;-62
2023/01/12 12:33:51;;;;;;;1.75;0.90;;;;;;;;;;5080916;28;20275;-62
2023/01/12 12:36:25;;;;;;;1.10;1.00;;;;;;;;;;5080300;28;20314;-64
2023/01/12 12:39:12;;;;;;;1.30;1.20;;;;;;;;;;5094044;28;20191;-64
2023/01/12 12:47:32;;;;;;;2.85;1.00;;;;;;;;;;5082473;28;20630;-63
2023/01/12 12:50:01;;;;;;;5.18;1.27;;;;;;;;;;5082479;28;20311;-64
2023/01/12 12:52:33;;;;;;;2.17;1.15;;;;;;;;;;5099306;28;20365;-64
2023/01/12 12:55:02;;;;;;;2.47;1.10;;;;;;;;;;5103289;28;20274;-64
2023/01/12 12:57:31;;;;;;;2.65;0.90;;;;;;;;;;5104250;28;20286;-64
2023/01/12 13:00:00;;;;;;;5.85;1.42;;;;;;;;;;5103757;28;20298;-64
2023/01/12 13:02:33;;;;;;;1.65;1.00;;;;;;;;;;5102827;28;20285;-64
2023/01/12 13:05:02;;;;;;;2.00;0.93;;;;;;;;;;5104381;28;20636;-63
2023/01/12 13:07:34;;;;;;;3.88;1.20;;;;;;;;;;5102145;28;20203;-63
2023/01/12 13:10:20;;;;;;;3.22;1.20;;;;;;;;;;5101091;28;20207;-63
2023/01/12 13:12:58;;;;;;;2.70;1.50;;;;;;;;;;5085090;28;20266;-63
2023/01/12 13:15:31;;;;;;;2.05;1.15;;;;;;;;;;5103609;28;20261;-63
2023/01/12 13:17:59;;;;;;;6.00;1.15;;;;;;;;;;5102969;28;20247;-63
2023/01/12 13:20:45;;;;;;;4.78;1.58;;;;;;;;;;5086929;28;20298;-63
2023/01/12 13:23:32;;;;;;;2.97;1.48;;;;;;;;;;5081703;28;20310;-63
2023/01/12 13:26:00;;;;;;;3.53;1.33;;;;;;;;;;5082041;28;20282;-63
2023/01/12 13:28:30;;;;;;;2.33;0.98;;;;;;;;;;5080771;28;20345;-63
2023/01/12 13:31:01;;;;;;;2.90;0.90;;;;;;;;;;5081980;28;20275;-63
2023/01/12 13:33:29;;;;;;;3.53;1.17;;;;;;;;;;5080740;28;20241;-63
2023/01/12 13:36:02;;;;;;;6.88;1.80;;;;;;;;;;5081893;28;20302;-64
2023/01/12 13:38:54;;;;;;;2.55;1.00;;;;;;;;;;5080981;28;20267;-63
2023/01/12 13:44:16;;;;;;;2.13;1.00;;;;;;;;;;5081358;28;20276;-64
2023/01/12 13:46:46;;;;;;;1.80;0.90;;;;;;;;;;5081449;28;20350;-64
2023/01/12 13:49:24;;;;;;;1.25;1.15;;;;;;;;;;5079997;28;20275;-64
2023/01/12 13:51:56;;;;;;;12.27;9.23;;;;;;;;;;5080440;28;20777;-64
2023/01/12 13:54:24;;;;;;;4.03;1.10;;;;;;;;;;5080092;28;20619;-63
2023/01/12 13:56:57;;;;;;;1.48;1.13;;;;;;;;;;5081123;28;20722;-63
2023/01/12 13:59:28;;;;;;;2.03;1.20;;;;;;;;;;5079104;28;20338;-63
2023/01/12 14:01:57;;;;;;;5.75;1.30;;;;;;;;;;5082868;28;20717;-63
2023/01/12 14:04:32;;;;;;;2.00;1.08;;;;;;;;;;5088869;28;20275;-64
2023/01/12 14:07:03;;;;;;;4.35;1.10;;;;;;;;;;5092577;28;20254;-62
2023/01/12 14:09:35;;;;;;;5.00;1.10;;;;;;;;;;5089906;28;20218;-63
2023/01/12 14:12:30;;;;;;;7.18;1.48;;;;;;;;;;5092090;28;20457;-65
2023/01/12 14:18:04;;;;;;;1.73;1.05;;;;;;;;;;5078070;28;20255;-64
2023/01/12 14:20:41;;;;;;;4.40;1.55;;;;;;;;;;5077852;28;20705;-64
2023/01/12 14:23:17;;;;;;;2.78;1.33;;;;;;;;;;5078938;28;20286;-64
2023/01/12 14:25:46;;;;;;;2.88;1.73;;;;;;;;;;5077774;28;20267;-64
2023/01/12 14:28:18;;;;;;;2.00;1.20;;;;;;;;;;5077448;28;20286;-64
2023/01/12 14:30:47;;;;;;;4.07;1.00;;;;;;;;;;5095547;28;20204;-63
2023/01/12 14:33:20;;;;;;;1.35;1.25;;;;;;;;;;5098477;28;20330;-63
2023/01/12 14:35:49;;;;;;;2.08;1.50;;;;;;;;;;5097568;28;20243;-63
2023/01/12 14:38:18;;;;;;;1.50;1.02;;;;;;;;;;5097596;28;20285;-63
2023/01/12 14:40:51;;;;;;;2.72;1.25;;;;;;;;;;5083130;28;20199;-63
2023/01/12 14:48:58;;;;;;;2.55;0.80;;;;;;;;;;5084817;28;20213;-64
2023/01/12 14:51:29;;;;;;;1.00;0.90;;;;;;;;;;5087434;28;20246;-64
2023/01/12 14:53:59;;;;;;;1.50;1.02;;;;;;;;;;5083567;28;20283;-63
2023/01/12 14:56:29;;;;;;;0.70;0.60;;;;;;;;;;5081676;28;20283;-63
2023/01/12 14:59:06;;;;;;;0.98;0.70;;;;;;;;;;5084452;28;20315;-63
2023/01/12 15:01:35;;;;;;;3.30;0.85;;;;;;;;;;5092805;28;20283;-63
2023/01/12 15:04:06;;;;;;;2.55;1.08;;;;;;;;;;5081479;28;20275;-63
2023/01/12 15:06:38;;;;;;;0.60;0.60;;;;;;;;;;5083153;28;20204;-63
2023/01/12 15:09:09;;;;;;;2.33;1.00;;;;;;;;;;5090303;28;20274;-62
2023/01/12 15:11:38;;;;;;;2.08;1.00;;;;;;;;;;5081351;28;20204;-63
2023/01/12 15:14:07;;;;;;;3.90;1.15;;;;;;;;;;5089058;28;20207;-62
2023/01/12 15:27:42;;;;;;;3.35;1.13;;;;;;;;;;5094439;28;20279;-64
2023/01/12 15:30:11;;;;;;;4.82;1.40;;;;;;;;;;5101714;28;20301;-63
2023/01/12 15:32:41;;;;;;;2.45;1.05;;;;;;;;;;5101523;28;20286;-64
2023/01/12 15:35:15;;;;;;;1.20;0.70;;;;;;;;;;5085622;28;20677;-64
2023/01/12 15:37:44;;;;;;;1.42;1.30;;;;;;;;;;5081529;28;20205;-64
2023/01/12 15:40:13;;;;;;;1.98;0.93;;;;;;;;;;5081948;28;20196;-64
2023/01/12 15:42:41;;;;;;;1.02;0.70;;;;;;;;;;5088753;28;20203;-64
2023/01/12 15:45:16;;;;;;;2.03;1.10;;;;;;;;;;5095569;28;20206;-64
2023/01/12 15:47:44;;;;;;;2.78;1.38;;;;;;;;;;5078299;28;20234;-64
2023/01/12 15:50:12;;;;;;;6.57;2.63;;;;;;;;;;5080003;28;20216;-64
2023/01/12 15:52:42;;;;;;;2.70;2.50;;;;;;;;;;5099066;28;20214;-64
2023/01/12 15:55:13;;;;;;;4.53;1.20;;;;;;;;;;5088458;28;20202;-64
2023/01/12 15:57:41;;;;;;;2.25;0.95;;;;;;;;;;5089940;28;21164;-64
2023/01/12 16:00:14;;;;;;;1.00;0.90;;;;;;;;;;5100139;28;20298;-64
2023/01/12 16:02:44;;;;;;;2.97;0.80;;;;;;;;;;5096460;28;20552;-63